sensor_id;sensor_type;location;lat;lon;timestamp;P1;durP1;ratioP1;P2;durP2;ratioP2
11078;SDS011;5592;49.234;7.268;2023-06-10T00:01:42;8.87;;;7.80;;
11078;SDS011;5592;49.234;7.268;2023-06-10T00:04:08;8.57;;;7.77;;
11078;SDS011;5592;49.234;7.268;2023-06-10T00:06:34;7.60;;;6.90;;
11078;SDS011;5592;49.234;7.268;2023-06-10T00:09:03;8.63;;;7.83;;
11078;SDS011;5592;49.234;7.268;2023-06-10T00:11:30;9.33;;;8.03;;
11078;SDS011;5592;49.234;7.268;2023-06-10T00:13:59;11.87;;;7.33;;
11078;SDS011;5592;49.234;7.268;2023-06-10T00:16:24;8.43;;;7.60;;
11078;SDS011;5592;49.234;7.268;2023-06-10T00:18:50;9.53;;;8.30;;
11078;SDS011;5592;49.234;7.268;2023-06-10T00:21:16;8.50;;;7.57;;
11078;SDS011;5592;49.234;7.268;2023-06-10T00:23:42;8.00;;;7.20;;
11078;SDS011;5592;49.234;7.268;2023-06-10T00:26:08;8.93;;;7.23;;
11078;SDS011;5592;49.234;7.268;2023-06-10T00:28:34;7.90;;;7.10;;
11078;SDS011;5592;49.234;7.268;2023-06-10T00:31:00;9.70;;;8.70;;
11078;SDS011;5592;49.234;7.268;2023-06-10T00:33:25;8.53;;;7.73;;
11078;SDS011;5592;49.234;7.268;2023-06-10T00:35:51;11.57;;;8.37;;
11078;SDS011;5592;49.234;7.268;2023-06-10T00:38:16;9.40;;;8.50;;
11078;SDS011;5592;49.234;7.268;2023-06-10T00:40:45;9.57;;;7.97;;
11078;SDS011;5592;49.234;7.268;2023-06-10T00:43:11;8.43;;;7.60;;
11078;SDS011;5592;49.234;7.268;2023-06-10T00:45:36;9.90;;;8.90;;
11078;SDS011;5592;49.234;7.268;2023-06-10T00:48:02;8.63;;;7.83;;
11078;SDS011;5592;49.234;7.268;2023-06-10T00:50:29;9.00;;;8.10;;
11078;SDS011;5592;49.234;7.268;2023-06-10T00:52:56;9.53;;;7.80;;
11078;SDS011;5592;49.234;7.268;2023-06-10T00:55:22;9.13;;;8.20;;
11078;SDS011;5592;49.234;7.268;2023-06-10T00:57:48;9.27;;;8.43;;
11078;SDS011;5592;49.234;7.268;2023-06-10T01:00:14;9.87;;;8.87;;
11078;SDS011;5592;49.234;7.268;2023-06-10T01:02:41;10.83;;;8.30;;
11078;SDS011;5592;49.234;7.268;2023-06-10T01:05:07;10.67;;;8.40;;
11078;SDS011;5592;49.234;7.268;2023-06-10T01:07:37;9.73;;;8.77;;
11078;SDS011;5592;49.234;7.268;2023-06-10T01:10:21;9.77;;;8.80;;
11078;SDS011;5592;49.234;7.268;2023-06-10T01:13:02;8.90;;;8.00;;
11078;SDS011;5592;49.234;7.268;2023-06-10T01:15:33;9.90;;;8.90;;
11078;SDS011;5592;49.234;7.268;2023-06-10T01:20:30;11.10;;;9.40;;
11078;SDS011;5592;49.234;7.268;2023-06-10T01:22:57;12.50;;;8.70;;
11078;SDS011;5592;49.234;7.268;2023-06-10T01:25:24;11.50;;;9.27;;
11078;SDS011;5592;49.234;7.268;2023-06-10T01:33:24;10.93;;;9.70;;
11078;SDS011;5592;49.234;7.268;2023-06-10T01:35:58;10.63;;;9.53;;
11078;SDS011;5592;49.234;7.268;2023-06-10T01:38:27;12.17;;;9.57;;
11078;SDS011;5592;49.234;7.268;2023-06-10T01:40:57;11.37;;;9.60;;
11078;SDS011;5592;49.234;7.268;2023-06-10T01:43:23;12.40;;;10.20;;
11078;SDS011;5592;49.234;7.268;2023-06-10T01:45:49;10.90;;;8.70;;
11078;SDS011;5592;49.234;7.268;2023-06-10T01:48:14;11.40;;;10.20;;
11078;SDS011;5592;49.234;7.268;2023-06-10T01:50:40;11.73;;;10.47;;
11078;SDS011;5592;49.234;7.268;2023-06-10T01:53:05;14.27;;;10.43;;
11078;SDS011;5592;49.234;7.268;2023-06-10T01:55:34;11.03;;;9.20;;
11078;SDS011;5592;49.234;7.268;2023-06-10T01:57:59;11.40;;;10.17;;
11078;SDS011;5592;49.234;7.268;2023-06-10T02:00:25;15.03;;;10.83;;
11078;SDS011;5592;49.234;7.268;2023-06-10T02:02:50;10.73;;;9.67;;
11078;SDS011;5592;49.234;7.268;2023-06-10T02:05:16;11.63;;;10.07;;
11078;SDS011;5592;49.234;7.268;2023-06-10T02:07:41;13.07;;;11.77;;
11078;SDS011;5592;49.234;7.268;2023-06-10T02:10:07;16.13;;;11.53;;
11078;SDS011;5592;49.234;7.268;2023-06-10T02:12:34;11.80;;;10.40;;
11078;SDS011;5592;49.234;7.268;2023-06-10T02:15:00;15.50;;;11.40;;
11078;SDS011;5592;49.234;7.268;2023-06-10T02:17:25;13.00;;;11.63;;
11078;SDS011;5592;49.234;7.268;2023-06-10T02:19:51;12.73;;;11.43;;
11078;SDS011;5592;49.234;7.268;2023-06-10T02:22:24;13.53;;;11.17;;
11078;SDS011;5592;49.234;7.268;2023-06-10T02:24:50;13.17;;;11.30;;
11078;SDS011;5592;49.234;7.268;2023-06-10T02:27:16;18.10;;;13.00;;
11078;SDS011;5592;49.234;7.268;2023-06-10T02:29:41;17.80;;;11.77;;
11078;SDS011;5592;49.234;7.268;2023-06-10T02:32:08;15.80;;;12.60;;
11078;SDS011;5592;49.234;7.268;2023-06-10T02:34:34;14.07;;;12.57;;
11078;SDS011;5592;49.234;7.268;2023-06-10T02:37:01;15.03;;;11.90;;
11078;SDS011;5592;49.234;7.268;2023-06-10T02:39:27;17.30;;;12.67;;
11078;SDS011;5592;49.234;7.268;2023-06-10T02:41:53;16.23;;;11.83;;
11078;SDS011;5592;49.234;7.268;2023-06-10T02:44:19;19.00;;;12.90;;
11078;SDS011;5592;49.234;7.268;2023-06-10T02:46:45;17.90;;;13.67;;
11078;SDS011;5592;49.234;7.268;2023-06-10T02:49:11;13.77;;;12.30;;
11078;SDS011;5592;49.234;7.268;2023-06-10T02:51:37;16.00;;;12.67;;
11078;SDS011;5592;49.234;7.268;2023-06-10T02:54:03;15.60;;;12.53;;
11078;SDS011;5592;49.234;7.268;2023-06-10T02:56:29;14.80;;;12.50;;
11078;SDS011;5592;49.234;7.268;2023-06-10T02:58:55;14.30;;;12.90;;
11078;SDS011;5592;49.234;7.268;2023-06-10T03:01:21;15.67;;;13.00;;
11078;SDS011;5592;49.234;7.268;2023-06-10T03:03:46;16.20;;;12.67;;
11078;SDS011;5592;49.234;7.268;2023-06-10T03:06:12;13.40;;;12.00;;
11078;SDS011;5592;49.234;7.268;2023-06-10T03:08:39;16.90;;;12.10;;
11078;SDS011;5592;49.234;7.268;2023-06-10T03:11:05;15.87;;;12.13;;
11078;SDS011;5592;49.234;7.268;2023-06-10T03:13:32;14.13;;;12.67;;
11078;SDS011;5592;49.234;7.268;2023-06-10T03:16:00;16.70;;;13.17;;
11078;SDS011;5592;49.234;7.268;2023-06-10T03:18:28;13.80;;;12.27;;
11078;SDS011;5592;49.234;7.268;2023-06-10T03:20:56;14.10;;;12.57;;
11078;SDS011;5592;49.234;7.268;2023-06-10T03:23:22;17.43;;;14.27;;
11078;SDS011;5592;49.234;7.268;2023-06-10T03:25:48;19.10;;;13.00;;
11078;SDS011;5592;49.234;7.268;2023-06-10T03:28:14;27.33;;;12.93;;
11078;SDS011;5592;49.234;7.268;2023-06-10T03:30:40;16.27;;;14.20;;
11078;SDS011;5592;49.234;7.268;2023-06-10T03:33:05;15.93;;;13.80;;
11078;SDS011;5592;49.234;7.268;2023-06-10T03:35:31;18.10;;;13.80;;
11078;SDS011;5592;49.234;7.268;2023-06-10T03:37:57;16.27;;;14.50;;
11078;SDS011;5592;49.234;7.268;2023-06-10T03:40:23;17.10;;;14.23;;
11078;SDS011;5592;49.234;7.268;2023-06-10T03:42:48;19.27;;;14.57;;
11078;SDS011;5592;49.234;7.268;2023-06-10T03:45:14;21.07;;;14.20;;
11078;SDS011;5592;49.234;7.268;2023-06-10T03:47:39;17.90;;;14.57;;
11078;SDS011;5592;49.234;7.268;2023-06-10T03:50:06;18.23;;;16.20;;
11078;SDS011;5592;49.234;7.268;2023-06-10T03:52:33;18.43;;;16.40;;
11078;SDS011;5592;49.234;7.268;2023-06-10T03:54:59;17.80;;;15.90;;
11078;SDS011;5592;49.234;7.268;2023-06-10T03:57:25;18.80;;;15.73;;
11078;SDS011;5592;49.234;7.268;2023-06-10T03:59:51;18.90;;;16.00;;
11078;SDS011;5592;49.234;7.268;2023-06-10T04:02:16;19.47;;;16.90;;
11078;SDS011;5592;49.234;7.268;2023-06-10T04:04:42;16.70;;;15.00;;
11078;SDS011;5592;49.234;7.268;2023-06-10T04:07:08;17.50;;;15.00;;
11078;SDS011;5592;49.234;7.268;2023-06-10T04:09:34;20.30;;;15.90;;
11078;SDS011;5592;49.234;7.268;2023-06-10T04:12:00;18.17;;;14.73;;
11078;SDS011;5592;49.234;7.268;2023-06-10T04:14:26;20.60;;;17.50;;
11078;SDS011;5592;49.234;7.268;2023-06-10T04:16:52;17.97;;;16.07;;
11078;SDS011;5592;49.234;7.268;2023-06-10T04:19:18;19.80;;;13.70;;
11078;SDS011;5592;49.234;7.268;2023-06-10T04:21:43;21.50;;;15.20;;
11078;SDS011;5592;49.234;7.268;2023-06-10T04:24:09;15.60;;;13.70;;
11078;SDS011;5592;49.234;7.268;2023-06-10T04:26:35;15.60;;;14.00;;
11078;SDS011;5592;49.234;7.268;2023-06-10T04:29:01;15.37;;;13.50;;
11078;SDS011;5592;49.234;7.268;2023-06-10T04:31:26;18.00;;;13.30;;
11078;SDS011;5592;49.234;7.268;2023-06-10T04:33:52;14.83;;;12.60;;
11078;SDS011;5592;49.234;7.268;2023-06-10T04:36:18;18.17;;;12.70;;
11078;SDS011;5592;49.234;7.268;2023-06-10T04:38:44;13.80;;;11.87;;
11078;SDS011;5592;49.234;7.268;2023-06-10T04:41:09;16.60;;;13.10;;
11078;SDS011;5592;49.234;7.268;2023-06-10T04:43:35;13.53;;;12.13;;
11078;SDS011;5592;49.234;7.268;2023-06-10T04:46:00;18.37;;;11.83;;
11078;SDS011;5592;49.234;7.268;2023-06-10T04:48:26;12.37;;;11.07;;
11078;SDS011;5592;49.234;7.268;2023-06-10T04:50:52;14.03;;;10.83;;
11078;SDS011;5592;49.234;7.268;2023-06-10T04:53:17;10.50;;;9.20;;
11078;SDS011;5592;49.234;7.268;2023-06-10T04:55:43;17.60;;;10.67;;
11078;SDS011;5592;49.234;7.268;2023-06-10T04:58:09;10.60;;;9.60;;
11078;SDS011;5592;49.234;7.268;2023-06-10T05:00:34;14.20;;;10.30;;
11078;SDS011;5592;49.234;7.268;2023-06-10T05:03:00;11.13;;;9.03;;
11078;SDS011;5592;49.234;7.268;2023-06-10T05:05:25;12.27;;;9.63;;
11078;SDS011;5592;49.234;7.268;2023-06-10T05:07:51;10.17;;;8.87;;
11078;SDS011;5592;49.234;7.268;2023-06-10T05:10:17;13.70;;;9.60;;
11078;SDS011;5592;49.234;7.268;2023-06-10T05:12:42;12.90;;;9.53;;
11078;SDS011;5592;49.234;7.268;2023-06-10T05:15:08;12.63;;;8.57;;
11078;SDS011;5592;49.234;7.268;2023-06-10T05:17:34;11.90;;;9.90;;
11078;SDS011;5592;49.234;7.268;2023-06-10T05:20:00;10.37;;;9.03;;
11078;SDS011;5592;49.234;7.268;2023-06-10T05:22:26;10.73;;;9.00;;
11078;SDS011;5592;49.234;7.268;2023-06-10T05:24:52;12.67;;;9.10;;
11078;SDS011;5592;49.234;7.268;2023-06-10T05:27:18;10.20;;;9.20;;
11078;SDS011;5592;49.234;7.268;2023-06-10T05:29:44;10.83;;;9.07;;
11078;SDS011;5592;49.234;7.268;2023-06-10T05:32:10;8.77;;;7.87;;
11078;SDS011;5592;49.234;7.268;2023-06-10T05:34:36;9.90;;;8.07;;
11078;SDS011;5592;49.234;7.268;2023-06-10T05:37:01;11.67;;;8.13;;
11078;SDS011;5592;49.234;7.268;2023-06-10T05:39:27;8.97;;;8.03;;
11078;SDS011;5592;49.234;7.268;2023-06-10T05:41:53;10.03;;;9.00;;
11078;SDS011;5592;49.234;7.268;2023-06-10T05:44:18;8.80;;;8.00;;
11078;SDS011;5592;49.234;7.268;2023-06-10T05:46:44;11.77;;;9.23;;
11078;SDS011;5592;49.234;7.268;2023-06-10T05:49:09;9.93;;;8.93;;
11078;SDS011;5592;49.234;7.268;2023-06-10T05:51:35;9.70;;;8.93;;
11078;SDS011;5592;49.234;7.268;2023-06-10T05:54:01;10.33;;;9.33;;
11078;SDS011;5592;49.234;7.268;2023-06-10T05:56:27;10.40;;;9.30;;
11078;SDS011;5592;49.234;7.268;2023-06-10T05:58:53;10.60;;;9.50;;
11078;SDS011;5592;49.234;7.268;2023-06-10T06:01:18;9.60;;;8.70;;
11078;SDS011;5592;49.234;7.268;2023-06-10T06:03:44;11.07;;;9.97;;
11078;SDS011;5592;49.234;7.268;2023-06-10T06:06:09;9.63;;;8.63;;
11078;SDS011;5592;49.234;7.268;2023-06-10T06:08:35;9.77;;;8.90;;
11078;SDS011;5592;49.234;7.268;2023-06-10T06:11:00;10.55;;;9.02;;
11078;SDS011;5592;49.234;7.268;2023-06-10T06:13:26;10.10;;;9.13;;
11078;SDS011;5592;49.234;7.268;2023-06-10T06:15:51;21.15;;;9.70;;
11078;SDS011;5592;49.234;7.268;2023-06-10T06:18:18;13.65;;;10.20;;
11078;SDS011;5592;49.234;7.268;2023-06-10T06:20:43;9.45;;;8.63;;
11078;SDS011;5592;49.234;7.268;2023-06-10T06:23:09;11.52;;;9.95;;
11078;SDS011;5592;49.234;7.268;2023-06-10T06:25:35;10.40;;;9.40;;
11078;SDS011;5592;49.234;7.268;2023-06-10T06:28:03;9.88;;;9.07;;
11078;SDS011;5592;49.234;7.268;2023-06-10T06:30:32;10.60;;;9.60;;
11078;SDS011;5592;49.234;7.268;2023-06-10T06:32:58;11.88;;;9.43;;
11078;SDS011;5592;49.234;7.268;2023-06-10T06:35:24;10.90;;;8.25;;
11078;SDS011;5592;49.234;7.268;2023-06-10T06:37:49;9.98;;;8.18;;
11078;SDS011;5592;49.234;7.268;2023-06-10T06:40:15;10.00;;;8.88;;
11078;SDS011;5592;49.234;7.268;2023-06-10T06:42:40;8.70;;;8.00;;
11078;SDS011;5592;49.234;7.268;2023-06-10T06:45:06;9.77;;;8.77;;
11078;SDS011;5592;49.234;7.268;2023-06-10T06:47:32;9.30;;;8.38;;
11078;SDS011;5592;49.234;7.268;2023-06-10T06:49:57;10.38;;;8.30;;
11078;SDS011;5592;49.234;7.268;2023-06-10T06:52:23;9.90;;;8.45;;
11078;SDS011;5592;49.234;7.268;2023-06-10T06:54:48;9.02;;;8.23;;
11078;SDS011;5592;49.234;7.268;2023-06-10T06:57:14;10.10;;;8.55;;
11078;SDS011;5592;49.234;7.268;2023-06-10T06:59:39;9.00;;;8.20;;
11078;SDS011;5592;49.234;7.268;2023-06-10T07:02:05;8.73;;;8.02;;
11078;SDS011;5592;49.234;7.268;2023-06-10T07:04:31;8.82;;;7.95;;
11078;SDS011;5592;49.234;7.268;2023-06-10T07:06:56;7.82;;;7.13;;
11078;SDS011;5592;49.234;7.268;2023-06-10T07:09:22;8.73;;;7.85;;
11078;SDS011;5592;49.234;7.268;2023-06-10T07:11:47;7.65;;;6.88;;
11078;SDS011;5592;49.234;7.268;2023-06-10T07:14:13;7.95;;;7.18;;
11078;SDS011;5592;49.234;7.268;2023-06-10T07:16:39;7.65;;;6.85;;
11078;SDS011;5592;49.234;7.268;2023-06-10T07:19:04;8.00;;;7.18;;
11078;SDS011;5592;49.234;7.268;2023-06-10T07:21:30;8.88;;;6.22;;
11078;SDS011;5592;49.234;7.268;2023-06-10T07:23:57;6.95;;;6.28;;
11078;SDS011;5592;49.234;7.268;2023-06-10T07:26:22;6.05;;;5.65;;
11078;SDS011;5592;49.234;7.268;2023-06-10T07:28:48;6.55;;;5.95;;
11078;SDS011;5592;49.234;7.268;2023-06-10T07:31:14;6.80;;;6.30;;
11078;SDS011;5592;49.234;7.268;2023-06-10T07:33:39;6.38;;;5.88;;
11078;SDS011;5592;49.234;7.268;2023-06-10T07:36:05;6.53;;;5.97;;
11078;SDS011;5592;49.234;7.268;2023-06-10T07:38:31;6.80;;;6.30;;
11078;SDS011;5592;49.234;7.268;2023-06-10T07:40:57;6.45;;;5.85;;
11078;SDS011;5592;49.234;7.268;2023-06-10T07:43:22;6.80;;;6.10;;
11078;SDS011;5592;49.234;7.268;2023-06-10T07:45:48;6.88;;;6.30;;
11078;SDS011;5592;49.234;7.268;2023-06-10T07:48:14;6.20;;;5.70;;
11078;SDS011;5592;49.234;7.268;2023-06-10T07:50:39;7.30;;;5.35;;
11078;SDS011;5592;49.234;7.268;2023-06-10T07:53:05;6.43;;;5.65;;
11078;SDS011;5592;49.234;7.268;2023-06-10T07:55:31;6.97;;;6.38;;
11078;SDS011;5592;49.234;7.268;2023-06-10T07:57:56;6.22;;;5.72;;
11078;SDS011;5592;49.234;7.268;2023-06-10T08:00:22;9.00;;;5.97;;
11078;SDS011;5592;49.234;7.268;2023-06-10T08:02:47;9.27;;;5.40;;
11078;SDS011;5592;49.234;7.268;2023-06-10T08:05:13;5.70;;;5.30;;
11078;SDS011;5592;49.234;7.268;2023-06-10T08:07:39;4.88;;;4.47;;
11078;SDS011;5592;49.234;7.268;2023-06-10T08:10:05;5.25;;;4.85;;
11078;SDS011;5592;49.234;7.268;2023-06-10T08:12:31;4.00;;;3.70;;
11078;SDS011;5592;49.234;7.268;2023-06-10T08:14:58;4.28;;;3.97;;
11078;SDS011;5592;49.234;7.268;2023-06-10T08:17:24;4.57;;;4.18;;
11078;SDS011;5592;49.234;7.268;2023-06-10T08:19:49;4.00;;;3.70;;
11078;SDS011;5592;49.234;7.268;2023-06-10T08:22:15;10.20;;;4.15;;
11078;SDS011;5592;49.234;7.268;2023-06-10T08:24:40;5.22;;;4.07;;
11078;SDS011;5592;49.234;7.268;2023-06-10T08:27:06;4.32;;;3.88;;
11078;SDS011;5592;49.234;7.268;2023-06-10T08:29:31;4.72;;;3.95;;
11078;SDS011;5592;49.234;7.268;2023-06-10T08:31:57;4.45;;;4.07;;
11078;SDS011;5592;49.234;7.268;2023-06-10T08:34:23;3.55;;;3.35;;
11078;SDS011;5592;49.234;7.268;2023-06-10T08:36:49;4.22;;;3.83;;
11078;SDS011;5592;49.234;7.268;2023-06-10T08:39:20;4.25;;;3.80;;
11078;SDS011;5592;49.234;7.268;2023-06-10T08:42:07;3.95;;;3.65;;
11078;SDS011;5592;49.234;7.268;2023-06-10T08:44:35;4.05;;;3.65;;
11078;SDS011;5592;49.234;7.268;2023-06-10T08:47:11;4.00;;;3.70;;
11078;SDS011;5592;49.234;7.268;2023-06-10T08:49:41;4.32;;;4.03;;
11078;SDS011;5592;49.234;7.268;2023-06-10T08:52:09;7.53;;;4.10;;
11078;SDS011;5592;49.234;7.268;2023-06-10T08:54:42;4.25;;;3.60;;
11078;SDS011;5592;49.234;7.268;2023-06-10T08:57:13;4.47;;;4.00;;
11078;SDS011;5592;49.234;7.268;2023-06-10T08:59:40;4.97;;;4.30;;
11078;SDS011;5592;49.234;7.268;2023-06-10T09:02:06;4.28;;;3.83;;
11078;SDS011;5592;49.234;7.268;2023-06-10T09:04:33;4.00;;;3.70;;
11078;SDS011;5592;49.234;7.268;2023-06-10T09:07:01;4.43;;;4.03;;
11078;SDS011;5592;49.234;7.268;2023-06-10T09:09:27;7.43;;;4.38;;
11078;SDS011;5592;49.234;7.268;2023-06-10T09:11:55;7.55;;;3.80;;
11078;SDS011;5592;49.234;7.268;2023-06-10T09:14:21;5.80;;;4.53;;
11078;SDS011;5592;49.234;7.268;2023-06-10T09:16:46;8.02;;;3.83;;
11078;SDS011;5592;49.234;7.268;2023-06-10T09:19:15;4.30;;;3.90;;
11078;SDS011;5592;49.234;7.268;2023-06-10T09:21:41;6.03;;;4.00;;
11078;SDS011;5592;49.234;7.268;2023-06-10T09:24:07;13.65;;;4.53;;
11078;SDS011;5592;49.234;7.268;2023-06-10T09:26:33;4.72;;;3.95;;
11078;SDS011;5592;49.234;7.268;2023-06-10T09:29:03;4.65;;;4.25;;
11078;SDS011;5592;49.234;7.268;2023-06-10T09:31:30;4.22;;;3.90;;
11078;SDS011;5592;49.234;7.268;2023-06-10T09:36:33;3.90;;;3.60;;
11078;SDS011;5592;49.234;7.268;2023-06-10T09:38:59;4.63;;;4.22;;
11078;SDS011;5592;49.234;7.268;2023-06-10T09:41:34;7.00;;;4.28;;
11078;SDS011;5592;49.234;7.268;2023-06-10T09:44:05;5.53;;;4.40;;
11078;SDS011;5592;49.234;7.268;2023-06-10T09:46:38;4.28;;;3.92;;
11078;SDS011;5592;49.234;7.268;2023-06-10T09:49:04;10.32;;;3.85;;
11078;SDS011;5592;49.234;7.268;2023-06-10T09:51:29;4.38;;;3.97;;
11078;SDS011;5592;49.234;7.268;2023-06-10T09:53:55;4.77;;;4.13;;
11078;SDS011;5592;49.234;7.268;2023-06-10T09:56:20;11.00;;;3.85;;
11078;SDS011;5592;49.234;7.268;2023-06-10T09:58:49;4.70;;;3.63;;
11078;SDS011;5592;49.234;7.268;2023-06-10T10:01:17;5.17;;;3.67;;
11078;SDS011;5592;49.234;7.268;2023-06-10T10:03:44;7.03;;;3.60;;
11078;SDS011;5592;49.234;7.268;2023-06-10T10:06:10;4.63;;;3.93;;
11078;SDS011;5592;49.234;7.268;2023-06-10T10:08:36;3.77;;;3.47;;
11078;SDS011;5592;49.234;7.268;2023-06-10T10:11:02;5.00;;;3.57;;
11078;SDS011;5592;49.234;7.268;2023-06-10T10:13:28;5.00;;;3.70;;
11078;SDS011;5592;49.234;7.268;2023-06-10T10:15:56;4.17;;;3.73;;
11078;SDS011;5592;49.234;7.268;2023-06-10T10:18:27;4.83;;;3.93;;
11078;SDS011;5592;49.234;7.268;2023-06-10T10:20:55;8.70;;;4.43;;
11078;SDS011;5592;49.234;7.268;2023-06-10T10:23:26;3.60;;;3.30;;
11078;SDS011;5592;49.234;7.268;2023-06-10T10:26:00;4.13;;;3.67;;
11078;SDS011;5592;49.234;7.268;2023-06-10T10:28:31;7.37;;;4.00;;
11078;SDS011;5592;49.234;7.268;2023-06-10T10:31:10;4.33;;;3.90;;
11078;SDS011;5592;49.234;7.268;2023-06-10T10:36:24;5.50;;;3.83;;
11078;SDS011;5592;49.234;7.268;2023-06-10T10:38:50;4.23;;;3.93;;
11078;SDS011;5592;49.234;7.268;2023-06-10T10:41:16;4.93;;;4.40;;
11078;SDS011;5592;49.234;7.268;2023-06-10T10:43:43;7.10;;;3.50;;
11078;SDS011;5592;49.234;7.268;2023-06-10T10:46:13;5.33;;;3.77;;
11078;SDS011;5592;49.234;7.268;2023-06-10T10:48:42;6.33;;;4.33;;
11078;SDS011;5592;49.234;7.268;2023-06-10T10:51:09;5.87;;;4.00;;
11078;SDS011;5592;49.234;7.268;2023-06-10T10:53:37;10.40;;;4.10;;
11078;SDS011;5592;49.234;7.268;2023-06-10T10:56:13;7.83;;;4.10;;
11078;SDS011;5592;49.234;7.268;2023-06-10T10:58:40;4.60;;;4.10;;
11078;SDS011;5592;49.234;7.268;2023-06-10T11:01:10;6.80;;;4.10;;
11078;SDS011;5592;49.234;7.268;2023-06-10T11:03:41;5.17;;;3.97;;
11078;SDS011;5592;49.234;7.268;2023-06-10T11:06:16;5.27;;;3.50;;
11078;SDS011;5592;49.234;7.268;2023-06-10T11:11:22;4.70;;;4.20;;
11078;SDS011;5592;49.234;7.268;2023-06-10T11:16:38;4.33;;;3.93;;
11078;SDS011;5592;49.234;7.268;2023-06-10T11:19:08;5.07;;;3.80;;
11078;SDS011;5592;49.234;7.268;2023-06-10T11:22:17;6.60;;;4.43;;
11078;SDS011;5592;49.234;7.268;2023-06-10T11:32:51;4.90;;;4.20;;
11078;SDS011;5592;49.234;7.268;2023-06-10T11:35:18;4.50;;;4.10;;
11078;SDS011;5592;49.234;7.268;2023-06-10T11:37:44;6.43;;;4.17;;
11078;SDS011;5592;49.234;7.268;2023-06-10T11:40:10;5.47;;;4.97;;
11078;SDS011;5592;49.234;7.268;2023-06-10T11:42:40;4.60;;;4.20;;
11078;SDS011;5592;49.234;7.268;2023-06-10T11:45:07;7.13;;;4.40;;
11078;SDS011;5592;49.234;7.268;2023-06-10T11:47:33;4.53;;;4.13;;
11078;SDS011;5592;49.234;7.268;2023-06-10T11:49:59;7.90;;;3.90;;
11078;SDS011;5592;49.234;7.268;2023-06-10T11:52:30;5.43;;;3.97;;
11078;SDS011;5592;49.234;7.268;2023-06-10T11:54:58;4.83;;;4.27;;
11078;SDS011;5592;49.234;7.268;2023-06-10T11:57:24;4.10;;;3.70;;
11078;SDS011;5592;49.234;7.268;2023-06-10T11:59:50;7.33;;;4.30;;
11078;SDS011;5592;49.234;7.268;2023-06-10T12:02:16;6.53;;;4.30;;
11078;SDS011;5592;49.234;7.268;2023-06-10T12:04:42;4.97;;;4.40;;
11078;SDS011;5592;49.234;7.268;2023-06-10T12:07:07;4.80;;;4.23;;
11078;SDS011;5592;49.234;7.268;2023-06-10T12:09:33;5.20;;;4.23;;
11078;SDS011;5592;49.234;7.268;2023-06-10T12:12:03;6.03;;;4.70;;
11078;SDS011;5592;49.234;7.268;2023-06-10T12:19:56;5.87;;;3.87;;
11078;SDS011;5592;49.234;7.268;2023-06-10T12:22:22;4.23;;;3.83;;
11078;SDS011;5592;49.234;7.268;2023-06-10T12:25:02;4.60;;;3.53;;
11078;SDS011;5592;49.234;7.268;2023-06-10T12:27:32;4.17;;;3.87;;
11078;SDS011;5592;49.234;7.268;2023-06-10T12:29:59;4.67;;;4.27;;
11078;SDS011;5592;49.234;7.268;2023-06-10T12:32:42;6.47;;;4.67;;
11078;SDS011;5592;49.234;7.268;2023-06-10T12:35:10;6.83;;;4.30;;
11078;SDS011;5592;49.234;7.268;2023-06-10T12:37:37;4.90;;;3.73;;
11078;SDS011;5592;49.234;7.268;2023-06-10T12:40:04;6.80;;;4.30;;
11078;SDS011;5592;49.234;7.268;2023-06-10T12:42:35;6.70;;;4.40;;
11078;SDS011;5592;49.234;7.268;2023-06-10T12:45:02;4.37;;;3.97;;
11078;SDS011;5592;49.234;7.268;2023-06-10T12:47:32;5.50;;;4.40;;
11078;SDS011;5592;49.234;7.268;2023-06-10T12:50:04;6.13;;;4.53;;
11078;SDS011;5592;49.234;7.268;2023-06-10T12:52:30;4.20;;;3.80;;
11078;SDS011;5592;49.234;7.268;2023-06-10T12:54:57;5.37;;;4.23;;
11078;SDS011;5592;49.234;7.268;2023-06-10T12:57:23;6.93;;;4.33;;
11078;SDS011;5592;49.234;7.268;2023-06-10T12:59:49;7.43;;;5.07;;
11078;SDS011;5592;49.234;7.268;2023-06-10T13:02:17;11.23;;;4.77;;
11078;SDS011;5592;49.234;7.268;2023-06-10T13:04:49;4.60;;;3.97;;
11078;SDS011;5592;49.234;7.268;2023-06-10T13:07:15;4.50;;;4.10;;
11078;SDS011;5592;49.234;7.268;2023-06-10T13:09:41;5.93;;;4.63;;
11078;SDS011;5592;49.234;7.268;2023-06-10T13:12:07;6.60;;;4.70;;
11078;SDS011;5592;49.234;7.268;2023-06-10T13:14:33;4.60;;;4.20;;
11078;SDS011;5592;49.234;7.268;2023-06-10T13:16:59;4.80;;;4.40;;
11078;SDS011;5592;49.234;7.268;2023-06-10T13:19:25;5.23;;;4.73;;
11078;SDS011;5592;49.234;7.268;2023-06-10T13:21:51;5.10;;;4.47;;
11078;SDS011;5592;49.234;7.268;2023-06-10T13:24:17;7.03;;;4.83;;
11078;SDS011;5592;49.234;7.268;2023-06-10T13:26:43;5.83;;;5.23;;
11078;SDS011;5592;49.234;7.268;2023-06-10T13:29:08;5.57;;;4.93;;
11078;SDS011;5592;49.234;7.268;2023-06-10T13:31:39;9.30;;;4.70;;
11078;SDS011;5592;49.234;7.268;2023-06-10T13:34:05;4.80;;;4.43;;
11078;SDS011;5592;49.234;7.268;2023-06-10T13:36:31;5.27;;;4.70;;
11078;SDS011;5592;49.234;7.268;2023-06-10T13:38:57;6.90;;;4.97;;
11078;SDS011;5592;49.234;7.268;2023-06-10T13:41:22;7.87;;;5.40;;
11078;SDS011;5592;49.234;7.268;2023-06-10T13:43:48;6.50;;;5.50;;
11078;SDS011;5592;49.234;7.268;2023-06-10T13:46:14;7.23;;;5.37;;
11078;SDS011;5592;49.234;7.268;2023-06-10T13:48:39;5.03;;;4.60;;
11078;SDS011;5592;49.234;7.268;2023-06-10T13:51:05;5.80;;;5.30;;
11078;SDS011;5592;49.234;7.268;2023-06-10T13:53:31;5.17;;;4.63;;
11078;SDS011;5592;49.234;7.268;2023-06-10T13:55:57;5.93;;;5.00;;
11078;SDS011;5592;49.234;7.268;2023-06-10T13:58:22;7.53;;;5.30;;
11078;SDS011;5592;49.234;7.268;2023-06-10T14:00:48;6.53;;;4.97;;
11078;SDS011;5592;49.234;7.268;2023-06-10T14:03:15;5.77;;;5.27;;
11078;SDS011;5592;49.234;7.268;2023-06-10T14:05:41;6.53;;;4.80;;
11078;SDS011;5592;49.234;7.268;2023-06-10T14:08:06;4.60;;;4.20;;
11078;SDS011;5592;49.234;7.268;2023-06-10T14:10:32;6.43;;;5.37;;
11078;SDS011;5592;49.234;7.268;2023-06-10T14:12:58;5.00;;;4.60;;
11078;SDS011;5592;49.234;7.268;2023-06-10T14:15:26;8.57;;;5.00;;
11078;SDS011;5592;49.234;7.268;2023-06-10T14:17:51;7.80;;;4.90;;
11078;SDS011;5592;49.234;7.268;2023-06-10T14:20:17;5.33;;;4.47;;
11078;SDS011;5592;49.234;7.268;2023-06-10T14:22:43;7.23;;;5.23;;
11078;SDS011;5592;49.234;7.268;2023-06-10T14:25:08;6.20;;;5.60;;
11078;SDS011;5592;49.234;7.268;2023-06-10T14:27:34;5.77;;;5.27;;
11078;SDS011;5592;49.234;7.268;2023-06-10T14:29:59;6.87;;;5.50;;
11078;SDS011;5592;49.234;7.268;2023-06-10T14:32:25;5.97;;;5.47;;
11078;SDS011;5592;49.234;7.268;2023-06-10T14:34:51;6.93;;;5.53;;
11078;SDS011;5592;49.234;7.268;2023-06-10T14:37:16;7.33;;;5.47;;
11078;SDS011;5592;49.234;7.268;2023-06-10T14:39:42;6.10;;;5.50;;
11078;SDS011;5592;49.234;7.268;2023-06-10T14:42:08;5.93;;;5.40;;
11078;SDS011;5592;49.234;7.268;2023-06-10T14:44:33;12.30;;;6.03;;
11078;SDS011;5592;49.234;7.268;2023-06-10T14:46:59;7.80;;;4.93;;
11078;SDS011;5592;49.234;7.268;2023-06-10T14:49:25;5.77;;;5.17;;
11078;SDS011;5592;49.234;7.268;2023-06-10T14:51:50;9.67;;;5.53;;
11078;SDS011;5592;49.234;7.268;2023-06-10T14:54:16;6.10;;;5.50;;
11078;SDS011;5592;49.234;7.268;2023-06-10T14:56:42;8.10;;;5.47;;
11078;SDS011;5592;49.234;7.268;2023-06-10T14:59:10;5.97;;;5.37;;
11078;SDS011;5592;49.234;7.268;2023-06-10T15:01:36;5.50;;;5.00;;
11078;SDS011;5592;49.234;7.268;2023-06-10T15:04:01;7.03;;;4.80;;
11078;SDS011;5592;49.234;7.268;2023-06-10T15:06:27;6.30;;;4.93;;
11078;SDS011;5592;49.234;7.268;2023-06-10T15:08:52;5.73;;;4.13;;
11078;SDS011;5592;49.234;7.268;2023-06-10T15:11:18;7.73;;;5.83;;
11078;SDS011;5592;49.234;7.268;2023-06-10T15:13:44;5.57;;;4.90;;
11078;SDS011;5592;49.234;7.268;2023-06-10T15:16:09;4.83;;;4.33;;
11078;SDS011;5592;49.234;7.268;2023-06-10T15:18:38;5.37;;;4.40;;
11078;SDS011;5592;49.234;7.268;2023-06-10T15:21:04;5.73;;;4.10;;
11078;SDS011;5592;49.234;7.268;2023-06-10T15:23:29;6.10;;;4.33;;